createdAt,value
2019-01-26T00:01:52.123Z,69.40
2019-01-26T00:04:21.461Z,70.10
2019-01-26T00:06:50.848Z,69.50
2019-01-26T00:09:20.349Z,69.40
2019-01-26T00:11:49.741Z,69.20
2019-01-26T00:14:19.112Z,68.90
2019-01-26T00:16:48.541Z,69.00
2019-01-26T00:19:17.899Z,68.80
2019-01-26T00:21:47.319Z,68.30
2019-01-26T00:24:16.715Z,68.60
2019-01-26T00:26:46.131Z,68.40
2019-01-26T00:29:15.502Z,68.00
2019-01-26T00:31:45.005Z,67.60
2019-01-26T00:34:14.379Z,67.90
2019-01-26T00:36:45.159Z,67.60
2019-01-26T00:39:16.342Z,67.60
2019-01-26T00:41:47.322Z,67.30
2019-01-26T00:44:18.456Z,67.30
2019-01-26T00:46:49.627Z,67.00
2019-01-26T00:49:20.147Z,66.40
2019-01-26T00:51:50.200Z,66.60
2019-01-26T00:54:20.422Z,66.40
2019-01-26T00:56:50.478Z,66.50
2019-01-26T00:59:20.567Z,66.60
2019-01-26T01:01:50.429Z,66.50
2019-01-26T01:04:20.328Z,66.40
2019-01-26T01:06:50.377Z,65.80
2019-01-26T01:09:20.480Z,66.00
2019-01-26T01:11:50.899Z,66.10
2019-01-26T01:14:21.088Z,65.90
2019-01-26T01:16:51.384Z,65.50
2019-01-26T01:19:21.486Z,65.20
2019-01-26T01:21:51.948Z,65.00
2019-01-26T01:24:22.069Z,65.10
2019-01-26T01:26:51.737Z,65.00
2019-01-26T01:29:22.184Z,65.30
2019-01-26T01:31:51.935Z,65.10
2019-01-26T01:34:21.337Z,65.10
2019-01-26T01:36:50.711Z,64.70
2019-01-26T01:39:20.145Z,64.50
2019-01-26T01:41:49.535Z,64.90
2019-01-26T01:44:18.985Z,64.80
2019-01-26T01:46:48.415Z,64.70
2019-01-26T01:49:17.818Z,64.70
2019-01-26T01:51:47.207Z,64.30
2019-01-26T01:54:16.595Z,64.30
2019-01-26T01:56:45.996Z,64.30
2019-01-26T01:59:15.373Z,64.00
2019-01-26T02:01:44.791Z,63.90
2019-01-26T02:04:14.169Z,63.70
2019-01-26T02:06:43.562Z,63.70
2019-01-26T02:09:12.959Z,63.60
2019-01-26T02:11:42.351Z,63.50
2019-01-26T02:14:11.743Z,64.00
2019-01-26T02:16:41.115Z,64.20
2019-01-26T02:19:10.507Z,64.50
2019-01-26T02:21:39.897Z,64.80
2019-01-26T02:24:09.355Z,65.20
2019-01-26T02:26:38.734Z,65.50
2019-01-26T02:29:08.107Z,65.70
2019-01-26T02:31:37.529Z,65.80
2019-01-26T02:34:07.217Z,65.60
2019-01-26T02:36:36.636Z,65.70
2019-01-26T02:39:08.012Z,65.60
2019-01-26T02:41:37.396Z,65.60
2019-01-26T02:44:06.847Z,65.80
2019-01-26T02:46:36.315Z,66.20
2019-01-26T02:49:05.688Z,66.60
2019-01-26T02:51:35.067Z,67.10
2019-01-26T02:54:04.571Z,68.90
2019-01-26T02:56:33.955Z,70.40
2019-01-26T02:59:03.363Z,71.20
2019-01-26T03:01:32.752Z,73.10
2019-01-26T03:04:02.310Z,74.10
2019-01-26T03:06:31.785Z,74.70
2019-01-26T03:09:01.172Z,76.00
2019-01-26T03:11:30.570Z,76.20
2019-01-26T03:13:59.952Z,77.10
2019-01-26T03:16:29.362Z,79.10
2019-01-26T03:18:58.759Z,78.60
2019-01-26T03:21:28.127Z,79.50
2019-01-26T03:23:57.530Z,79.50
2019-01-26T03:26:26.907Z,80.10
2019-01-26T03:28:56.322Z,80.50
2019-01-26T03:31:25.744Z,80.50
2019-01-26T03:33:55.115Z,81.50
2019-01-26T03:36:24.443Z,82.20
2019-01-26T03:38:54.767Z,82.30
2019-01-26T03:41:24.151Z,83.50
2019-01-26T03:43:53.534Z,83.20
2019-01-26T03:46:22.985Z,84.00
2019-01-26T03:48:52.364Z,83.80
2019-01-26T03:51:21.780Z,83.90
2019-01-26T03:53:51.175Z,83.60
2019-01-26T03:56:20.592Z,84.70
2019-01-26T03:58:50.015Z,84.40
2019-01-26T04:01:19.488Z,84.70
2019-01-26T04:03:49.010Z,84.40
2019-01-26T04:06:18.391Z,84.10
2019-01-26T04:08:47.769Z,84.60
2019-01-26T04:11:17.184Z,84.10
2019-01-26T04:13:46.556Z,85.60
2019-01-26T04:16:15.997Z,85.30
2019-01-26T04:18:45.401Z,86.20
2019-01-26T04:21:14.780Z,86.90
2019-01-26T04:23:44.197Z,86.70
2019-01-26T04:26:13.564Z,87.40
2019-01-26T04:28:42.964Z,87.90
2019-01-26T04:31:12.358Z,88.60
2019-01-26T04:33:41.795Z,88.20
2019-01-26T04:36:11.173Z,87.90
2019-01-26T04:38:40.531Z,88.30
2019-01-26T04:41:09.960Z,88.20
2019-01-26T04:43:39.350Z,88.80
2019-01-26T04:46:08.762Z,89.10
2019-01-26T04:48:38.119Z,88.70
2019-01-26T04:51:07.694Z,88.60
2019-01-26T04:53:37.059Z,88.30
2019-01-26T04:56:06.443Z,88.50
2019-01-26T04:58:35.863Z,88.50
2019-01-26T05:01:05.335Z,88.40
2019-01-26T05:03:34.748Z,88.20
2019-01-26T05:06:04.418Z,88.40
2019-01-26T05:08:33.787Z,88.80
2019-01-26T05:11:03.198Z,88.90
2019-01-26T05:13:32.573Z,88.60
2019-01-26T05:16:01.984Z,88.80
2019-01-26T05:18:30.647Z,89.10
2019-01-26T05:21:00.063Z,88.90
2019-01-26T05:23:29.427Z,88.90
2019-01-26T05:25:58.805Z,88.90
2019-01-26T05:28:28.204Z,88.50
2019-01-26T05:30:57.611Z,88.40
2019-01-26T05:33:27.021Z,88.50
2019-01-26T05:35:56.406Z,88.70
2019-01-26T05:38:25.813Z,88.50
2019-01-26T05:40:55.183Z,88.60
2019-01-26T05:43:24.633Z,88.80
2019-01-26T05:45:53.986Z,88.50
2019-01-26T05:48:23.387Z,88.40
2019-01-26T05:50:52.803Z,88.80
2019-01-26T05:53:22.998Z,88.60
2019-01-26T05:55:52.483Z,88.70
2019-01-26T05:58:21.867Z,88.30
2019-01-26T06:00:51.249Z,88.60
2019-01-26T06:03:20.656Z,89.40
2019-01-26T06:05:50.054Z,88.60
2019-01-26T06:08:19.439Z,88.40
2019-01-26T06:10:48.863Z,88.70
2019-01-26T06:13:18.265Z,88.60
2019-01-26T06:15:47.651Z,88.80
2019-01-26T06:18:17.162Z,89.40
2019-01-26T06:20:46.542Z,88.60
2019-01-26T06:23:15.939Z,88.60
2019-01-26T06:25:45.322Z,88.70
2019-01-26T06:28:14.731Z,88.70
2019-01-26T06:30:44.094Z,88.50
2019-01-26T06:33:13.488Z,88.40
2019-01-26T06:35:42.931Z,88.40
2019-01-26T06:38:12.312Z,88.30
2019-01-26T06:40:41.795Z,88.20
2019-01-26T06:43:11.189Z,88.20
2019-01-26T06:45:40.600Z,88.20
2019-01-26T06:48:10.075Z,88.30
2019-01-26T06:50:39.486Z,88.40
2019-01-26T06:53:08.882Z,88.50
2019-01-26T06:55:38.379Z,88.50
2019-01-26T06:58:07.752Z,88.60
2019-01-26T07:00:37.170Z,88.40
2019-01-26T07:03:06.929Z,88.60
2019-01-26T07:06:07.447Z,88.60
2019-01-26T07:08:36.832Z,88.70
2019-01-26T07:11:06.208Z,89.00
2019-01-26T07:13:35.610Z,88.60
2019-01-26T07:16:05.004Z,88.70
2019-01-26T07:18:34.411Z,88.70
2019-01-26T07:21:03.800Z,88.80
2019-01-26T07:23:33.204Z,88.80
2019-01-26T07:26:02.596Z,88.60
2019-01-26T07:28:32.012Z,88.80
2019-01-26T07:31:01.383Z,88.60
2019-01-26T07:33:30.783Z,88.50
2019-01-26T07:36:00.180Z,88.40
2019-01-26T07:38:30.040Z,88.30
2019-01-26T07:40:59.699Z,88.40
2019-01-26T07:43:29.072Z,88.20
2019-01-26T07:45:58.475Z,88.30
2019-01-26T07:48:27.869Z,88.10
2019-01-26T07:50:57.287Z,88.10
2019-01-26T07:53:26.696Z,88.00
2019-01-26T07:55:56.343Z,87.90
2019-01-26T07:58:25.788Z,87.70
2019-01-26T08:00:55.163Z,87.60
2019-01-26T08:03:24.553Z,87.60
2019-01-26T08:05:53.972Z,87.50
2019-01-26T08:08:23.707Z,87.60
2019-01-26T08:10:53.122Z,87.60
2019-01-26T08:13:23.554Z,87.60
2019-01-26T08:15:53.059Z,87.60
2019-01-26T08:18:24.155Z,87.60
2019-01-26T08:20:53.667Z,87.40
2019-01-26T08:23:23.052Z,87.10
2019-01-26T08:25:52.424Z,87.10
2019-01-26T08:28:21.839Z,87.00
2019-01-26T08:30:51.222Z,87.10
2019-01-26T08:33:20.634Z,87.20
2019-01-26T08:35:50.011Z,87.20
2019-01-26T08:38:19.384Z,87.30
2019-01-26T08:40:48.796Z,87.20
2019-01-26T08:43:18.183Z,87.20
2019-01-26T08:45:47.582Z,87.00
2019-01-26T08:48:17.020Z,86.80
2019-01-26T08:50:46.445Z,86.70
2019-01-26T08:53:15.830Z,86.50
2019-01-26T08:55:45.212Z,86.30
2019-01-26T08:58:14.648Z,86.10
2019-01-26T09:00:44.045Z,86.00
2019-01-26T09:03:35.170Z,86.10
2019-01-26T09:06:18.730Z,86.30
2019-01-26T09:08:48.143Z,86.50
2019-01-26T09:11:17.544Z,86.60
2019-01-26T09:13:46.971Z,86.70
2019-01-26T09:16:16.371Z,86.70
2019-01-26T09:18:45.735Z,86.60
2019-01-26T09:21:15.128Z,86.80
2019-01-26T09:23:44.520Z,86.90
2019-01-26T09:26:13.915Z,86.70
2019-01-26T09:28:43.290Z,86.50
2019-01-26T09:31:12.700Z,86.40
2019-01-26T09:33:42.098Z,86.30
2019-01-26T09:36:11.591Z,86.30
2019-01-26T09:38:40.967Z,86.20
2019-01-26T09:41:10.444Z,86.10
2019-01-26T09:43:39.851Z,86.20
2019-01-26T09:46:09.224Z,85.80
2019-01-26T09:48:38.651Z,85.70
2019-01-26T09:51:08.119Z,85.60
2019-01-26T09:53:37.535Z,85.60
2019-01-26T09:56:07.019Z,85.40
2019-01-26T09:58:36.391Z,85.30
2019-01-26T10:01:06.036Z,85.10
2019-01-26T10:03:35.429Z,84.90
2019-01-26T10:06:05.627Z,84.70
2019-01-26T10:08:35.027Z,84.70
2019-01-26T10:11:04.544Z,84.90
2019-01-26T10:13:33.917Z,85.00
2019-01-26T10:16:03.341Z,85.20
2019-01-26T10:18:32.715Z,85.20
2019-01-26T10:21:02.097Z,85.30
2019-01-26T10:23:31.512Z,85.40
2019-01-26T10:26:00.915Z,85.30
2019-01-26T10:28:30.340Z,85.20
2019-01-26T10:31:00.938Z,85.00
2019-01-26T10:33:30.359Z,84.90
2019-01-26T10:36:18.702Z,84.60
2019-01-26T10:39:06.799Z,84.50
2019-01-26T10:41:53.759Z,84.50
2019-01-26T10:44:28.171Z,84.70
2019-01-26T10:46:57.552Z,84.70
2019-01-26T10:49:27.108Z,84.60
2019-01-26T10:51:56.548Z,84.20
2019-01-26T10:54:25.922Z,84.10
2019-01-26T10:56:55.326Z,83.90
2019-01-26T10:59:24.705Z,83.60
2019-01-26T11:01:54.110Z,83.50
2019-01-26T11:04:23.504Z,83.30
2019-01-26T11:06:52.907Z,83.20
2019-01-26T11:09:22.279Z,83.00
2019-01-26T11:11:51.651Z,83.00
2019-01-26T11:14:21.068Z,82.80
2019-01-26T11:16:50.450Z,82.90
2019-01-26T11:19:19.870Z,82.60
2019-01-26T11:21:49.254Z,82.60
2019-01-26T11:24:18.663Z,82.40
2019-01-26T11:26:49.331Z,81.90
2019-01-26T11:29:18.811Z,81.90
2019-01-26T11:31:48.232Z,81.60
2019-01-26T11:34:17.615Z,81.60
2019-01-26T11:36:47.021Z,81.80
2019-01-26T11:39:16.400Z,81.60
2019-01-26T11:41:45.794Z,81.50
2019-01-26T11:44:15.163Z,81.10
2019-01-26T11:47:01.705Z,80.90
2019-01-26T11:49:31.076Z,80.80
2019-01-26T11:52:08.540Z,80.90
2019-01-26T11:55:00.150Z,81.00
2019-01-26T11:57:32.472Z,80.60
2019-01-26T12:00:38.988Z,80.60
2019-01-26T12:03:30.467Z,80.60
2019-01-26T12:06:21.949Z,80.90
2019-01-26T12:08:51.342Z,81.30
2019-01-26T12:11:20.728Z,81.70
2019-01-26T12:13:50.072Z,82.00
2019-01-26T12:16:26.581Z,82.50
2019-01-26T12:18:50.507Z,82.60
2019-01-26T12:21:19.900Z,82.70
2019-01-26T12:23:49.269Z,82.80
2019-01-26T12:26:18.667Z,83.00
2019-01-26T12:28:48.052Z,82.90
2019-01-26T12:31:17.478Z,82.60
2019-01-26T12:33:46.847Z,82.20
2019-01-26T12:36:16.270Z,81.90
2019-01-26T12:38:45.647Z,81.70
2019-01-26T12:41:15.061Z,81.50
2019-01-26T12:43:44.460Z,81.30
2019-01-26T12:46:13.875Z,80.90
2019-01-26T12:48:43.249Z,80.40
2019-01-26T12:51:12.651Z,80.00
2019-01-26T12:53:42.068Z,79.80
2019-01-26T12:56:11.436Z,80.00
2019-01-26T12:58:40.841Z,79.80
2019-01-26T13:01:10.307Z,79.70
2019-01-26T13:03:39.823Z,79.70
2019-01-26T13:06:09.203Z,79.90
2019-01-26T13:08:38.610Z,79.90
2019-01-26T13:11:26.232Z,79.90
2019-01-26T13:13:55.640Z,79.90
2019-01-26T13:16:25.116Z,80.20
2019-01-26T13:18:54.523Z,80.40
2019-01-26T13:21:23.845Z,80.40
2019-01-26T13:23:53.239Z,80.30
2019-01-26T13:26:22.651Z,80.10
2019-01-26T13:28:52.036Z,79.90
2019-01-26T13:31:21.443Z,79.80
2019-01-26T13:33:50.834Z,79.70
2019-01-26T13:36:20.247Z,79.80
2019-01-26T13:38:49.647Z,79.80
2019-01-26T13:41:19.083Z,79.70
2019-01-26T13:43:48.592Z,79.60
2019-01-26T13:46:18.063Z,79.70
2019-01-26T13:48:47.459Z,79.90
2019-01-26T13:51:16.883Z,79.80
2019-01-26T13:53:46.238Z,79.60
2019-01-26T13:56:15.622Z,79.50
2019-01-26T13:58:45.051Z,79.20
2019-01-26T14:01:14.451Z,79.40
2019-01-26T14:03:43.855Z,79.60
2019-01-26T14:06:13.255Z,79.90
2019-01-26T14:08:42.729Z,80.10
2019-01-26T14:11:12.105Z,80.50
2019-01-26T14:13:41.477Z,81.00
2019-01-26T14:16:10.868Z,81.30
2019-01-26T14:18:40.259Z,81.70
2019-01-26T14:21:09.668Z,81.50
2019-01-26T14:23:39.047Z,81.30
2019-01-26T14:26:08.482Z,81.30
2019-01-26T14:28:38.068Z,81.40
2019-01-26T14:31:08.515Z,81.50
2019-01-26T14:33:37.906Z,81.60
2019-01-26T14:36:07.285Z,81.70
2019-01-26T14:38:36.675Z,81.70
2019-01-26T14:41:06.144Z,81.80
2019-01-26T14:43:35.553Z,81.70
2019-01-26T14:46:04.943Z,82.50
2019-01-26T14:48:34.355Z,81.80
2019-01-26T14:51:03.775Z,81.90
2019-01-26T14:53:33.697Z,81.70
2019-01-26T14:56:03.115Z,81.70
2019-01-26T14:58:32.503Z,81.70
2019-01-26T15:01:02.184Z,81.70
2019-01-26T15:03:31.551Z,81.90
2019-01-26T15:06:00.843Z,82.10
2019-01-26T15:08:30.255Z,82.30
2019-01-26T15:10:59.669Z,82.50
2019-01-26T15:13:29.060Z,82.60
2019-01-26T15:15:58.443Z,82.60
2019-01-26T15:18:27.849Z,82.70
2019-01-26T15:20:57.228Z,82.80
2019-01-26T15:23:26.630Z,83.00
2019-01-26T15:25:56.004Z,83.20
2019-01-26T15:28:25.423Z,83.30
2019-01-26T15:30:54.795Z,83.40
2019-01-26T15:33:24.176Z,83.60
2019-01-26T15:35:53.587Z,83.60
2019-01-26T15:38:22.994Z,84.40
2019-01-26T15:40:52.404Z,83.70
2019-01-26T15:43:21.783Z,83.90
2019-01-26T15:45:51.396Z,84.10
2019-01-26T15:48:20.763Z,84.10
2019-01-26T15:50:50.159Z,84.10
2019-01-26T15:53:19.626Z,84.10
2019-01-26T15:55:49.056Z,84.10
2019-01-26T15:58:18.429Z,84.30
2019-01-26T16:00:47.795Z,84.30
2019-01-26T16:03:17.199Z,84.50
2019-01-26T16:05:46.508Z,84.60
2019-01-26T16:08:15.908Z,84.80
2019-01-26T16:10:45.298Z,84.90
2019-01-26T16:13:14.676Z,85.00
2019-01-26T16:15:44.263Z,85.20
2019-01-26T16:18:15.325Z,85.30
2019-01-26T16:20:44.735Z,85.30
2019-01-26T16:23:14.124Z,85.40
2019-01-26T16:25:43.493Z,85.40
2019-01-26T16:28:12.907Z,85.40
2019-01-26T16:30:42.387Z,85.40
2019-01-26T16:33:11.779Z,85.40
2019-01-26T16:35:41.161Z,85.40
2019-01-26T16:38:10.650Z,85.30
2019-01-26T16:40:40.060Z,85.30
2019-01-26T16:43:09.471Z,85.30
2019-01-26T16:45:40.123Z,85.40
2019-01-26T16:48:12.011Z,85.50
2019-01-26T16:50:41.408Z,85.50
2019-01-26T16:53:10.987Z,85.50
2019-01-26T16:55:40.407Z,85.60
2019-01-26T16:58:09.992Z,85.60
2019-01-26T17:00:41.631Z,85.60
2019-01-26T17:03:11.017Z,85.70
2019-01-26T17:05:40.486Z,85.70
2019-01-26T17:08:10.321Z,85.80
2019-01-26T17:10:39.783Z,85.80
2019-01-26T17:13:11.787Z,85.90
2019-01-26T17:15:41.238Z,86.00
2019-01-26T17:18:13.905Z,86.10
2019-01-26T17:20:43.304Z,86.00
2019-01-26T17:23:12.686Z,85.90
2019-01-26T17:25:42.071Z,85.90
2019-01-26T17:28:11.476Z,85.80
2019-01-26T17:30:42.719Z,85.80
2019-01-26T17:33:12.191Z,85.70
2019-01-26T17:35:41.583Z,85.70
2019-01-26T17:38:10.985Z,85.60
2019-01-26T17:40:40.466Z,85.60
2019-01-26T17:43:09.828Z,85.60
2019-01-26T17:45:39.235Z,85.80
2019-01-26T17:48:09.385Z,85.80
2019-01-26T17:50:42.382Z,85.80
2019-01-26T17:53:09.819Z,85.90
2019-01-26T17:55:39.748Z,85.90
2019-01-26T17:58:09.231Z,85.80
2019-01-26T18:00:55.163Z,85.80
2019-01-26T18:03:24.960Z,85.90
2019-01-26T18:05:54.438Z,86.00
2019-01-26T18:08:23.807Z,86.10
2019-01-26T18:10:53.176Z,86.10
2019-01-26T18:13:22.856Z,86.30
2019-01-26T18:15:53.023Z,86.50
2019-01-26T18:18:22.431Z,86.50
2019-01-26T18:20:51.800Z,86.40
2019-01-26T18:23:25.659Z,86.40
2019-01-26T18:25:55.127Z,86.40
2019-01-26T18:28:24.788Z,86.40
2019-01-26T18:30:54.201Z,86.40
2019-01-26T18:33:23.582Z,86.30
2019-01-26T18:35:53.016Z,86.30
2019-01-26T18:38:22.392Z,86.30
2019-01-26T18:40:51.803Z,86.40
2019-01-26T18:43:21.193Z,86.60
2019-01-26T18:45:50.603Z,86.60
2019-01-26T18:48:19.992Z,86.80
2019-01-26T18:50:56.147Z,87.00
2019-01-26T18:53:21.629Z,87.10
2019-01-26T18:55:51.067Z,87.20
2019-01-26T18:58:20.871Z,87.30
2019-01-26T19:00:51.196Z,87.30
2019-01-26T19:03:43.043Z,87.40
2019-01-26T19:06:12.428Z,87.30
2019-01-26T19:08:41.842Z,87.30
2019-01-26T19:11:11.218Z,87.50
2019-01-26T19:13:40.592Z,87.50
2019-01-26T19:16:10.012Z,87.50
2019-01-26T19:18:39.396Z,87.60
2019-01-26T19:21:08.802Z,87.70
2019-01-26T19:23:38.194Z,87.80
2019-01-26T19:26:07.580Z,87.70
2019-01-26T19:28:36.983Z,88.00
2019-01-26T19:31:06.373Z,88.00
2019-01-26T19:33:35.845Z,88.10
2019-01-26T19:36:05.728Z,88.20
2019-01-26T19:38:35.094Z,88.30
2019-01-26T19:41:04.586Z,88.40
2019-01-26T19:43:33.964Z,88.40
2019-01-26T19:46:03.391Z,88.50
2019-01-26T19:48:32.791Z,88.40
2019-01-26T19:51:02.295Z,88.30
2019-01-26T19:53:31.694Z,88.20
2019-01-26T19:56:01.175Z,88.10
2019-01-26T19:58:30.879Z,87.80
2019-01-26T20:01:00.545Z,87.60
2019-01-26T20:03:29.961Z,87.40
2019-01-26T20:05:59.357Z,87.30
2019-01-26T20:08:28.728Z,87.20
2019-01-26T20:10:58.127Z,86.90
2019-01-26T20:13:27.531Z,87.30
2019-01-26T20:15:56.945Z,86.60
2019-01-26T20:18:26.337Z,86.50
2019-01-26T20:20:55.909Z,86.40
2019-01-26T20:23:25.227Z,86.40
2019-01-26T20:25:54.611Z,86.50
2019-01-26T20:28:24.026Z,86.50
2019-01-26T20:30:53.337Z,86.60
2019-01-26T20:33:22.736Z,86.70
2019-01-26T20:35:53.378Z,86.60
2019-01-26T20:38:22.829Z,86.60
2019-01-26T20:40:52.212Z,86.80
2019-01-26T20:43:21.960Z,86.80
2019-01-26T20:45:51.343Z,86.90
2019-01-26T20:48:20.723Z,87.10
2019-01-26T20:50:50.123Z,87.10
2019-01-26T20:53:19.507Z,87.30
2019-01-26T20:55:48.935Z,87.40
2019-01-26T20:58:19.600Z,87.40
2019-01-26T21:00:49.007Z,87.60
2019-01-26T21:03:18.319Z,87.50
2019-01-26T21:05:48.007Z,87.40
2019-01-26T21:08:17.408Z,87.50
2019-01-26T21:10:46.837Z,87.50
2019-01-26T21:13:16.676Z,87.50
2019-01-26T21:15:46.105Z,87.60
2019-01-26T21:18:15.479Z,87.60
2019-01-26T21:20:44.912Z,87.60
2019-01-26T21:23:14.279Z,87.70
2019-01-26T21:25:43.665Z,87.70
2019-01-26T21:28:13.074Z,87.60
2019-01-26T21:30:42.472Z,87.60
2019-01-26T21:33:11.870Z,87.50
2019-01-26T21:35:41.283Z,87.50
2019-01-26T21:38:10.748Z,87.30
2019-01-26T21:40:40.129Z,87.20
2019-01-26T21:43:09.499Z,87.10
2019-01-26T21:45:38.915Z,87.10
2019-01-26T21:48:08.359Z,87.10
2019-01-26T21:50:37.767Z,87.10
2019-01-26T21:53:07.135Z,87.10
2019-01-26T21:55:36.583Z,87.10
2019-01-26T21:58:06.108Z,87.00
2019-01-26T22:00:35.534Z,86.90
2019-01-26T22:03:05.064Z,86.80
2019-01-26T22:05:34.542Z,86.70
2019-01-26T22:08:04.041Z,86.60
2019-01-26T22:10:33.408Z,86.70
2019-01-26T22:13:02.813Z,86.70
2019-01-26T22:15:32.257Z,87.40
2019-01-26T22:18:01.763Z,86.80
2019-01-26T22:20:31.158Z,86.70
2019-01-26T22:23:00.872Z,86.70
2019-01-26T22:25:30.258Z,86.70
2019-01-26T22:27:59.681Z,86.90
2019-01-26T22:30:31.140Z,86.90
2019-01-26T22:33:00.851Z,87.00
2019-01-26T22:35:30.432Z,87.00
2019-01-26T22:37:59.956Z,86.90
2019-01-26T22:40:34.211Z,86.60
2019-01-26T22:43:03.970Z,86.40
2019-01-26T22:45:33.387Z,86.10
2019-01-26T22:48:02.747Z,86.00
2019-01-26T22:50:32.624Z,85.90
2019-01-26T22:53:02.006Z,85.70
2019-01-26T22:55:31.403Z,85.60
2019-01-26T22:58:00.838Z,85.50
2019-01-26T23:00:55.824Z,85.50
2019-01-26T23:03:32.490Z,85.60
2019-01-26T23:06:51.972Z,85.60
2019-01-26T23:09:35.479Z,85.50
2019-01-26T23:12:29.290Z,85.50
2019-01-26T23:15:39.139Z,85.50
2019-01-26T23:18:52.002Z,85.40
2019-01-26T23:21:47.295Z,85.20
2019-01-26T23:25:14.446Z,85.00
2019-01-26T23:28:22.842Z,85.00
2019-01-26T23:31:15.458Z,84.80
2019-01-26T23:33:45.660Z,84.70
2019-01-26T23:36:15.703Z,84.70
2019-01-26T23:38:45.075Z,84.70
2019-01-26T23:41:14.484Z,84.80
2019-01-26T23:43:43.918Z,84.70
2019-01-26T23:46:13.300Z,84.70
2019-01-26T23:48:42.741Z,84.70
2019-01-26T23:51:12.152Z,84.50
2019-01-26T23:53:41.555Z,84.40
2019-01-26T23:56:10.931Z,84.20
2019-01-26T23:58:40.398Z,84.20
